Time;durP1;ratioP1;P1;durP2;ratioP2;P2;SDS_P1;SDS_P2;PMS_P1;PMS_P2;Temp;Humidity;BMP_temperature;BMP_pressure;BME280_temperature;BME280_humidity;BME280_pressure;Samples;Min_cycle;Max_cycle;Signal;HPM_P1;HPM_P2
2023/02/22 00:01:21;;;;;;;1.05;1.00;;;;;;;9.00;68.20;101640.25;5072761;28;20039;-83
2023/02/22 00:03:50;;;;;;;0.20;0.20;;;;;;;9.01;68.20;101636.72;5072658;28;20025;-82
2023/02/22 00:06:19;;;;;;;1.13;0.85;;;;;;;9.01;67.76;101636.72;5067705;28;20036;-83
2023/02/22 00:08:48;;;;;;;1.52;1.52;;;;;;;9.01;68.22;101631.44;5074916;28;20029;-82
2023/02/22 00:11:15;;;;;;;1.40;1.30;;;;;;;8.98;68.00;101625.28;5073677;28;20115;-82
2023/02/22 00:13:43;;;;;;;0.25;0.25;;;;;;;8.99;68.12;101622.63;5074638;28;20513;-83
2023/02/22 00:16:14;;;;;;;0.20;0.20;;;;;;;8.91;68.55;101624.41;5073062;28;20040;-84
2023/02/22 00:18:40;;;;;;;0.20;0.20;;;;;;;8.90;68.39;101622.66;5057810;28;20122;-83
2023/02/22 00:21:09;;;;;;;2.50;0.98;;;;;;;8.88;68.23;101616.47;5071207;28;20031;-83
2023/02/22 00:23:38;;;;;;;0.73;0.73;;;;;;;8.87;68.66;101618.25;5073013;28;20071;-82
2023/02/22 00:26:08;;;;;;;0.73;0.73;;;;;;;8.88;68.40;101614.72;5071986;28;20021;-83
2023/02/22 00:28:36;;;;;;;0.68;0.68;;;;;;;8.83;68.50;101611.19;5072815;28;20070;-83
2023/02/22 00:31:05;;;;;;;0.20;0.20;;;;;;;8.77;68.07;101605.91;5077400;28;20021;-81
2023/02/22 00:33:32;;;;;;;0.40;0.40;;;;;;;8.72;68.81;101611.19;5097431;28;20029;-82
2023/02/22 00:35:58;;;;;;;0.15;0.15;;;;;;;8.78;68.88;101614.72;5092025;28;20027;-80
2023/02/22 00:38:25;;;;;;;0.20;0.20;;;;;;;8.77;69.09;101616.47;5093065;28;20038;-82
2023/02/22 00:40:51;;;;;;;0.68;0.68;;;;;;;8.77;68.50;101608.53;5091310;28;20032;-83
2023/02/22 00:43:17;;;;;;;1.75;1.65;;;;;;;8.79;68.88;101613.84;5080471;28;20043;-84
2023/02/22 00:45:43;;;;;;;0.70;0.70;;;;;;;8.78;68.61;101617.34;5078569;28;20032;-82
2023/02/22 00:48:10;;;;;;;0.20;0.20;;;;;;;8.77;68.88;101621.75;5079138;28;20048;-83
2023/02/22 00:50:37;;;;;;;4.32;1.80;;;;;;;8.78;69.11;101622.66;5074510;28;20107;-83
2023/02/22 00:53:04;;;;;;;0.20;0.20;;;;;;;8.79;68.70;101608.56;5073709;28;20391;-83
2023/02/22 00:55:33;;;;;;;0.28;0.28;;;;;;;8.81;68.89;101609.41;5076371;28;20115;-83
2023/02/22 00:58:00;;;;;;;0.47;0.47;;;;;;;8.79;68.41;101609.44;5073381;28;20058;-83
2023/02/22 01:00:30;;;;;;;0.70;0.70;;;;;;;8.78;68.52;101607.66;5075812;28;20024;-82
2023/02/22 01:02:57;;;;;;;1.40;1.40;;;;;;;8.78;68.12;101607.66;5073851;28;20115;-83
2023/02/22 01:05:26;;;;;;;1.10;1.00;;;;;;;8.75;68.54;101607.69;5076656;28;20060;-83
2023/02/22 01:07:54;;;;;;;0.30;0.30;;;;;;;8.73;68.22;101596.22;5075263;28;20030;-83
2023/02/22 01:10:24;;;;;;;0.20;0.20;;;;;;;8.74;68.09;101601.50;5077854;28;20063;-83
2023/02/22 01:12:51;;;;;;;0.85;0.85;;;;;;;8.68;68.31;101596.22;5073482;28;20062;-82
2023/02/22 01:15:21;;;;;;;1.42;1.33;;;;;;;8.68;67.55;101606.78;5073683;28;20101;-83
2023/02/22 01:17:48;;;;;;;0.10;0.10;;;;;;;8.63;67.53;101592.69;5078124;28;20111;-82
2023/02/22 01:20:15;;;;;;;0.20;0.20;;;;;;;8.59;67.74;101588.28;5076980;28;20116;-83
2023/02/22 01:22:45;;;;;;;1.33;1.02;;;;;;;8.58;67.56;101591.81;5070440;28;20033;-83
2023/02/22 01:25:15;;;;;;;0.20;0.20;;;;;;;8.50;68.14;101591.81;5069273;28;20029;-83
2023/02/22 01:27:41;;;;;;;1.25;0.63;;;;;;;8.48;67.52;101592.69;5077099;28;20384;-83
2023/02/22 01:30:11;;;;;;;0.45;0.45;;;;;;;8.45;68.05;101593.53;5070114;28;20072;-83
2023/02/22 01:32:40;;;;;;;1.08;1.08;;;;;;;8.45;68.12;101582.06;5079014;28;20546;-83
2023/02/22 01:35:09;;;;;;;4.28;2.75;;;;;;;8.43;68.60;101585.59;5074466;28;20039;-83
2023/02/22 01:37:36;;;;;;;1.85;1.75;;;;;;;8.42;68.31;101580.31;5069584;28;20032;-82
2023/02/22 01:40:06;;;;;;;0.20;0.20;;;;;;;8.35;67.80;101584.72;5072941;28;20399;-82
2023/02/22 01:42:32;;;;;;;0.50;0.50;;;;;;;8.35;67.66;101573.25;5075423;28;20017;-82
2023/02/22 01:45:38;;;;;;;0.10;0.10;;;;;;;8.39;67.90;101573.28;5079437;28;20446;-82
2023/02/22 01:48:12;;;;;;;0.20;0.20;;;;;;;8.36;68.04;101556.53;5076902;28;20091;-83
2023/02/22 01:50:43;;;;;;;1.10;1.10;;;;;;;8.32;68.10;101571.50;5074373;28;20033;-83
2023/02/22 01:53:13;;;;;;;0.20;0.20;;;;;;;8.31;68.59;101568.88;5075362;28;20036;-84
2023/02/22 01:55:39;;;;;;;0.10;0.10;;;;;;;8.27;68.14;101570.63;5076722;28;20036;-82
2023/02/22 01:58:07;;;;;;;2.05;1.90;;;;;;;8.24;67.87;101558.31;5071743;28;20671;-82
2023/02/22 02:00:34;;;;;;;0.55;0.55;;;;;;;8.21;68.16;101567.97;5073559;28;20502;-84
2023/02/22 02:03:10;;;;;;;0.80;0.80;;;;;;;8.21;68.51;101567.97;5073059;28;20028;-83
2023/02/22 02:05:37;;;;;;;0.20;0.20;;;;;;;8.13;68.43;101564.47;5067679;28;20091;-83
2023/02/22 02:08:19;;;;;;;1.83;1.55;;;;;;;8.16;68.58;101559.16;5086705;28;20029;-82
2023/02/22 02:10:46;;;;;;;1.42;1.13;;;;;;;8.10;68.18;101553.00;5098454;28;20029;-82
2023/02/22 02:13:12;;;;;;;3.75;2.63;;;;;;;8.12;68.25;101557.41;5097034;28;20036;-82
2023/02/22 02:15:38;;;;;;;0.38;0.38;;;;;;;8.12;68.74;101547.72;5087738;28;20032;-81
2023/02/22 02:18:08;;;;;;;0.75;0.63;;;;;;;8.13;69.13;101548.63;5090050;28;20036;-82
2023/02/22 02:32:19;;;;;;;0.20;0.20;;;;;;;8.14;69.13;101534.53;5090661;27;1213260;-81
2023/02/22 02:34:56;;;;;;;;;;;;;;;8.13;68.24;101531.00;5113269;28;20042;-82
2023/02/22 02:38:02;;;;;;;0.88;0.88;;;;;;;8.01;68.31;101534.53;5120868;28;19912;-80
2023/02/22 02:40:51;;;;;;;0.73;0.73;;;;;;;7.94;68.69;101530.13;5112177;28;20080;-81
2023/02/22 02:43:31;;;;;;;0.20;0.20;;;;;;;7.87;69.04;101531.84;5125718;28;20042;-81
2023/02/22 02:46:06;;;;;;;0.40;0.40;;;;;;;7.88;68.88;101528.34;5114506;28;20032;-79
2023/02/22 02:48:36;;;;;;;0.20;0.20;;;;;;;7.80;68.80;101523.91;5125597;28;20102;-80
2023/02/22 02:51:08;;;;;;;1.20;1.20;;;;;;;7.80;69.47;101526.56;5132671;28;20043;-80
2023/02/22 02:53:38;;;;;;;0.50;0.50;;;;;;;7.77;69.05;101515.09;5114181;28;20039;-81
2023/02/22 02:56:04;;;;;;;5.90;1.70;;;;;;;7.76;69.85;101509.84;5115595;28;20110;-81
2023/02/22 02:58:31;;;;;;;2.70;2.58;;;;;;;7.77;69.45;101507.19;5113411;28;20027;-82
2023/02/22 03:01:03;;;;;;;0.10;0.10;;;;;;;7.80;69.55;101498.44;5115823;28;20567;-82
2023/02/22 03:03:56;;;;;;;0.77;0.77;;;;;;;7.87;69.91;101501.94;5115361;28;20028;-81
2023/02/22 03:11:47;;;;;;;1.00;1.00;;;;;;;7.61;69.89;101482.56;5106179;27;1207900;-83
2023/02/22 03:14:25;;;;;;;1.55;1.45;;;;;;;7.84;69.80;101483.47;5117092;28;20027;-83
2023/02/22 03:17:03;;;;;;;0.43;0.43;;;;;;;7.85;70.07;101477.31;5108134;28;20047;-83
2023/02/22 03:20:00;;;;;;;0.65;0.63;;;;;;;7.90;69.51;101483.47;5110813;28;20034;-83
2023/02/22 03:22:36;;;;;;;1.10;1.10;;;;;;;7.91;70.09;101485.22;5115523;28;20035;-82
2023/02/22 03:25:09;;;;;;;2.10;1.15;;;;;;;7.91;70.01;101465.03;5107944;28;20016;-83
2023/02/22 03:27:45;;;;;;;0.20;0.20;;;;;;;7.91;70.17;101465.03;5110856;28;20035;-83
2023/02/22 03:30:18;;;;;;;0.30;0.30;;;;;;;7.88;70.21;101458.88;5104599;28;20048;-83
2023/02/22 03:32:49;;;;;;;0.25;0.25;;;;;;;7.89;69.71;101460.63;5106974;28;20027;-82
2023/02/22 03:35:30;;;;;;;4.22;1.67;;;;;;;7.94;70.21;101453.59;5111400;28;20043;-83
2023/02/22 03:38:00;;;;;;;3.05;2.85;;;;;;;7.94;70.00;101448.31;5110139;28;20039;-83
2023/02/22 03:40:32;;;;;;;1.85;1.75;;;;;;;7.92;70.41;101450.06;5110479;28;20137;-83
2023/02/22 03:43:05;;;;;;;1.45;1.38;;;;;;;7.92;69.69;101435.13;5107120;28;20032;-81
2023/02/22 03:45:33;;;;;;;0.43;0.43;;;;;;;7.88;70.22;101443.03;5128239;28;20103;-82
2023/02/22 03:48:09;;;;;;;0.22;0.22;;;;;;;7.86;70.17;101447.41;5125389;28;20096;-82
2023/02/22 03:50:36;;;;;;;0.75;0.75;;;;;;;7.76;70.58;101439.50;5126823;28;20044;-81
2023/02/22 03:53:03;;;;;;;0.10;0.10;;;;;;;7.73;70.20;101428.94;5124928;28;20042;-82
2023/02/22 03:55:30;;;;;;;1.65;1.65;;;;;;;7.72;70.74;101427.16;5113727;28;20031;-83
2023/02/22 03:57:59;;;;;;;0.20;0.20;;;;;;;7.75;70.49;101415.75;5108222;28;20725;-84
2023/02/22 04:00:30;;;;;;;4.40;3.30;;;;;;;7.75;71.11;101416.63;5112928;28;20047;-82
2023/02/22 04:02:57;;;;;;;0.52;0.52;;;;;;;7.71;70.75;101414.88;5104957;28;20020;-83
2023/02/22 04:05:23;;;;;;;1.05;1.05;;;;;;;7.73;70.63;101418.38;5111956;28;20111;-83
2023/02/22 04:07:51;;;;;;;2.22;1.90;;;;;;;7.72;70.85;101406.06;5116082;28;20069;-82
2023/02/22 04:10:18;;;;;;;2.97;2.78;;;;;;;7.71;70.98;101404.34;5112814;28;20051;-84
2023/02/22 04:12:44;;;;;;;1.70;1.60;;;;;;;7.68;71.08;101401.69;5109875;28;20020;-82
2023/02/22 04:15:14;;;;;;;0.55;0.55;;;;;;;7.71;70.96;101396.44;5108407;28;20028;-83
2023/02/22 04:17:41;;;;;;;2.25;2.15;;;;;;;7.66;71.65;101397.28;5104181;28;20029;-82
2023/02/22 04:20:08;;;;;;;10.80;1.63;;;;;;;7.65;71.65;101396.41;5110052;28;20501;-81
2023/02/22 04:22:34;;;;;;;0.40;0.40;;;;;;;7.66;72.02;101384.97;5101745;28;20505;-82
2023/02/22 04:25:00;;;;;;;0.30;0.30;;;;;;;7.70;71.28;101391.13;5098840;28;20028;-80
2023/02/22 04:27:26;;;;;;;1.45;1.35;;;;;;;7.70;71.95;101381.47;5102922;28;20032;-82
2023/02/22 04:29:52;;;;;;;2.25;1.15;;;;;;;7.71;71.54;101377.97;5104090;28;20509;-82
2023/02/22 04:32:18;;;;;;;0.43;0.43;;;;;;;7.68;71.96;101385.84;5107262;28;20483;-82
2023/02/22 04:34:44;;;;;;;0.10;0.10;;;;;;;7.70;72.28;101385.84;5105871;28;20028;-81
2023/02/22 04:37:11;;;;;;;0.20;0.20;;;;;;;7.69;72.37;101381.44;5102235;28;20060;-82
2023/02/22 04:39:37;;;;;;;0.10;0.10;;;;;;;7.67;72.41;101381.44;5100667;28;20087;-81
2023/02/22 04:42:04;;;;;;;0.40;0.40;;;;;;;7.65;71.87;101380.59;5106125;28;20376;-82
2023/02/22 04:44:30;;;;;;;1.70;1.70;;;;;;;7.62;72.00;101383.22;5106723;28;20051;-82
2023/02/22 04:46:56;;;;;;;0.73;0.73;;;;;;;7.63;72.15;101384.06;5099043;28;20082;-83
2023/02/22 04:49:23;;;;;;;1.15;1.15;;;;;;;7.58;72.19;101371.78;5099034;28;20035;-83
2023/02/22 04:51:49;;;;;;;0.20;0.20;;;;;;;7.61;72.89;101368.25;5097988;28;20063;-83
2023/02/22 04:54:16;;;;;;;10.73;1.17;;;;;;;7.65;72.22;101369.16;5086417;28;20116;-82
2023/02/22 04:56:43;;;;;;;0.20;0.20;;;;;;;7.66;72.41;101365.63;5092189;28;20035;-82
2023/02/22 04:59:10;;;;;;;0.95;0.50;;;;;;;7.64;72.54;101356.84;5097852;28;20441;-83
2023/02/22 05:01:37;;;;;;;0.15;0.15;;;;;;;7.62;73.21;101354.19;5097080;28;20030;-83
2023/02/22 05:04:05;;;;;;;1.13;1.10;;;;;;;7.62;73.07;101354.19;5096049;28;20032;-83
2023/02/22 05:06:32;;;;;;;3.30;2.40;;;;;;;7.64;73.12;101360.38;5096046;28;20123;-82
2023/02/22 05:08:58;;;;;;;0.52;0.50;;;;;;;7.65;72.94;101356.84;5096623;28;20024;-83
2023/02/22 05:11:24;;;;;;;0.50;0.50;;;;;;;7.68;72.60;101356.84;5089714;28;20494;-82
2023/02/22 05:13:50;;;;;;;0.32;0.32;;;;;;;7.68;72.59;101359.47;5087673;28;20092;-82
2023/02/22 05:16:16;;;;;;;0.10;0.10;;;;;;;7.67;72.61;101362.13;5097122;28;20032;-82
2023/02/22 05:18:42;;;;;;;0.13;0.13;;;;;;;7.65;72.79;101359.50;5096242;28;20111;-82
2023/02/22 05:21:08;;;;;;;0.63;0.63;;;;;;;7.63;73.14;101358.59;5110552;28;20038;-81
2023/02/22 05:23:34;;;;;;;0.10;0.10;;;;;;;7.63;72.82;101357.69;5108117;28;20092;-81
2023/02/22 05:26:01;;;;;;;0.77;0.77;;;;;;;7.60;72.92;101363.84;5110036;28;20029;-81
2023/02/22 05:28:27;;;;;;;0.43;0.43;;;;;;;7.54;73.56;101355.94;5106063;28;20028;-82
2023/02/22 05:30:53;;;;;;;0.10;0.10;;;;;;;7.56;73.63;101356.84;5103731;28;20040;-83
2023/02/22 05:33:19;;;;;;;0.13;0.13;;;;;;;7.54;73.18;101348.94;5094646;28;20032;-83
2023/02/22 05:35:45;;;;;;;0.20;0.20;;;;;;;7.47;73.39;101346.28;5088540;28;20046;-82
2023/02/22 05:38:14;;;;;;;0.63;0.63;;;;;;;7.51;73.53;101342.78;5091880;28;20403;-84
2023/02/22 05:40:41;;;;;;;0.10;0.10;;;;;;;7.51;73.64;101342.78;5097773;28;20498;-83
2023/02/22 05:43:07;;;;;;;0.40;0.40;;;;;;;7.52;73.82;101334.84;5095029;28;20394;-83
2023/02/22 05:45:34;;;;;;;0.30;0.30;;;;;;;7.56;73.88;101347.19;5095439;28;20184;-83
2023/02/22 05:48:01;;;;;;;0.10;0.10;;;;;;;7.60;73.83;101348.03;5094921;28;20066;-83
2023/02/22 05:50:28;;;;;;;0.10;0.10;;;;;;;7.61;74.22;101333.97;5088217;28;20058;-83
2023/02/22 05:52:54;;;;;;;0.20;0.20;;;;;;;7.63;73.76;101336.59;5093475;28;20057;-83
2023/02/22 05:55:22;;;;;;;0.30;0.30;;;;;;;7.64;73.85;101328.72;5094933;28;20028;-83
2023/02/22 05:57:48;;;;;;;0.10;0.10;;;;;;;7.64;74.28;101327.81;5086637;28;20062;-82
2023/02/22 06:00:22;;;;;;;0.73;0.73;;;;;;;7.64;74.19;101322.53;5093124;28;20497;-83
2023/02/22 06:02:54;;;;;;;1.50;0.68;;;;;;;7.65;74.12;101311.13;5090559;28;20131;-82
2023/02/22 06:05:20;;;;;;;2.88;2.30;;;;;;;7.64;74.23;101307.63;5090482;28;20035;-83
2023/02/22 06:07:46;;;;;;;0.45;0.45;;;;;;;7.60;73.60;101308.47;5092930;28;20032;-83
2023/02/22 06:10:12;;;;;;;1.02;1.02;;;;;;;7.60;74.03;101306.75;5091336;28;20036;-83
2023/02/22 06:12:38;;;;;;;0.25;0.25;;;;;;;7.62;73.97;101304.09;5094919;28;20032;-83
2023/02/22 06:15:05;;;;;;;2.05;1.95;;;;;;;7.61;74.08;101303.22;5093949;28;20032;-82
2023/02/22 06:17:31;;;;;;;1.40;1.40;;;;;;;7.63;74.26;101294.41;5088078;28;20028;-82
2023/02/22 06:19:57;;;;;;;0.20;0.20;;;;;;;7.64;73.85;101286.53;5096628;28;20020;-82
2023/02/22 06:22:23;;;;;;;1.45;0.68;;;;;;;7.66;73.83;101295.28;5090232;28;20039;-83
2023/02/22 06:24:49;;;;;;;0.25;0.25;;;;;;;7.67;74.06;101289.13;5090204;28;20044;-83
2023/02/22 06:27:15;;;;;;;0.90;0.90;;;;;;;7.66;73.66;101289.16;5095359;28;20028;-83
2023/02/22 06:29:45;;;;;;;0.10;0.10;;;;;;;7.61;73.70;101282.13;5095808;28;20139;-83
2023/02/22 06:32:12;;;;;;;0.10;0.10;;;;;;;7.67;74.08;101280.38;5090800;28;20570;-82
2023/02/22 06:34:39;;;;;;;0.73;0.73;;;;;;;7.68;73.52;101283.00;5086526;28;20491;-82
2023/02/22 06:37:06;;;;;;;0.20;0.20;;;;;;;7.70;73.85;101275.97;5094928;28;20502;-83
2023/02/22 06:39:32;;;;;;;1.00;1.00;;;;;;;7.71;73.30;101283.00;5086807;28;20033;-83
2023/02/22 06:41:59;;;;;;;0.13;0.13;;;;;;;7.73;73.58;101286.50;5095071;28;20036;-83
2023/02/22 06:44:26;;;;;;;0.10;0.10;;;;;;;7.74;73.37;101288.25;5089780;28;20039;-82
2023/02/22 06:46:52;;;;;;;0.08;0.08;;;;;;;7.73;73.30;101291.78;5095027;28;20118;-82
2023/02/22 06:49:19;;;;;;;0.10;0.10;;;;;;;7.78;73.55;101295.28;5094231;28;20031;-82
2023/02/22 06:51:46;;;;;;;0.10;0.10;;;;;;;7.80;73.47;101294.41;5090963;28;20446;-82
2023/02/22 06:54:12;;;;;;;1.23;0.38;;;;;;;7.78;73.13;101300.56;5094859;28;20116;-83
2023/02/22 06:56:39;;;;;;;0.10;0.10;;;;;;;7.86;73.37;101299.66;5102804;28;20012;-82
2023/02/22 06:59:05;;;;;;;3.90;1.10;;;;;;;7.87;73.82;101315.50;5115346;28;20020;-82
2023/02/22 07:01:31;;;;;;;0.10;0.10;;;;;;;7.89;73.22;101315.50;5115392;28;20399;-82
2023/02/22 07:03:57;;;;;;;0.20;0.20;;;;;;;7.88;73.07;101306.69;5104461;28;20031;-84
2023/02/22 07:06:23;;;;;;;0.20;0.20;;;;;;;7.89;73.71;101297.03;5103187;28;20035;-82
2023/02/22 07:08:49;;;;;;;0.30;0.30;;;;;;;7.87;73.43;101288.25;5100605;28;20488;-83
2023/02/22 07:11:16;;;;;;;0.20;0.20;;;;;;;7.90;73.00;101296.13;5099964;28;20127;-82
2023/02/22 07:13:42;;;;;;;6.43;2.05;;;;;;;7.89;73.47;101300.56;5088457;28;20101;-82
2023/02/22 07:16:08;;;;;;;0.10;0.10;;;;;;;7.90;72.96;101304.94;5089127;28;20380;-82
2023/02/22 07:18:34;;;;;;;0.55;0.55;;;;;;;7.94;73.57;101311.09;5087849;28;21221;-82
2023/02/22 07:21:00;;;;;;;0.20;0.20;;;;;;;7.95;72.98;101302.31;5087884;28;20399;-82
2023/02/22 07:23:26;;;;;;;2.33;2.22;;;;;;;7.94;73.11;101306.69;5093114;28;20044;-80
2023/02/22 07:25:52;;;;;;;0.30;0.30;;;;;;;7.99;72.88;101305.78;5091734;28;20036;-83
2023/02/22 07:28:18;;;;;;;0.30;0.30;;;;;;;8.00;73.41;101313.72;5088076;28;20038;-83
2023/02/22 07:30:44;;;;;;;0.20;0.20;;;;;;;8.03;73.04;101320.75;5090917;28;20032;-83
2023/02/22 07:33:12;;;;;;;0.30;0.30;;;;;;;8.05;73.42;101330.44;5090070;28;20036;-84
2023/02/22 07:35:45;;;;;;;0.47;0.47;;;;;;;8.03;73.19;101332.19;5090751;28;20043;-86
2023/02/22 07:38:12;;;;;;;0.13;0.13;;;;;;;8.06;73.14;101328.66;5089195;28;20446;-83
2023/02/22 07:40:38;;;;;;;0.80;0.77;;;;;;;8.04;73.28;101323.41;5091685;28;20119;-84
2023/02/22 07:43:18;;;;;;;0.82;0.82;;;;;;;7.99;73.03;101319.88;5095759;28;20560;-83
2023/02/22 07:45:46;;;;;;;0.10;0.10;;;;;;;7.99;73.48;101332.19;5083876;28;20028;-82
2023/02/22 07:48:13;;;;;;;0.38;0.38;;;;;;;8.00;73.53;101331.31;5096736;28;20043;-83
2023/02/22 07:50:40;;;;;;;0.15;0.15;;;;;;;8.01;73.73;101326.06;5097628;28;20039;-84
2023/02/22 07:53:12;;;;;;;2.20;0.85;;;;;;;8.07;73.80;101326.03;5094357;28;20032;-84
2023/02/22 07:55:38;;;;;;;0.43;0.40;;;;;;;8.08;73.72;101325.13;5094825;28;20039;-82
2023/02/22 07:58:07;;;;;;;0.28;0.28;;;;;;;8.07;73.53;101318.13;5100022;28;20028;-85
2023/02/22 08:00:38;;;;;;;0.77;0.77;;;;;;;8.09;73.21;101320.75;5100057;28;20140;-85
2023/02/22 08:03:08;;;;;;;0.20;0.20;;;;;;;8.13;73.43;101316.34;5095495;28;20028;-82
2023/02/22 08:05:36;;;;;;;1.23;1.23;;;;;;;8.13;73.02;101324.28;5095291;28;20040;-84
2023/02/22 08:08:04;;;;;;;2.90;1.65;;;;;;;8.17;73.31;101323.38;5091135;28;20152;-83
2023/02/22 08:10:31;;;;;;;0.50;0.50;;;;;;;8.19;73.62;101329.53;5096788;28;20039;-85
2023/02/22 08:12:57;;;;;;;0.50;0.50;;;;;;;8.23;73.30;101320.72;5098614;28;20039;-83
2023/02/22 08:15:28;;;;;;;0.20;0.20;;;;;;;8.29;73.59;101314.53;5099073;28;20032;-82
2023/02/22 08:17:55;;;;;;;0.25;0.25;;;;;;;8.29;73.49;101310.16;5098147;28;20620;-85
2023/02/22 08:20:22;;;;;;;0.25;0.25;;;;;;;8.32;72.88;101307.47;5097519;28;20293;-83
2023/02/22 08:22:48;;;;;;;0.88;0.88;;;;;;;8.39;72.87;101300.44;5088361;28;20025;-82
2023/02/22 08:25:16;;;;;;;0.17;0.17;;;;;;;8.43;72.92;101296.88;5096607;28;20111;-83
2023/02/22 08:27:42;;;;;;;34.30;1.85;;;;;;;8.45;73.27;101294.22;5097187;28;20094;-83
2023/02/22 08:30:14;;;;;;;0.20;0.20;;;;;;;8.48;72.80;101281.06;5096490;28;20537;-82
2023/02/22 08:32:40;;;;;;;0.20;0.20;;;;;;;8.47;72.49;101279.31;5096923;28;20032;-83
2023/02/22 08:35:06;;;;;;;0.10;0.10;;;;;;;8.50;72.42;101271.34;5100161;28;20061;-81
2023/02/22 08:37:32;;;;;;;2.15;2.05;;;;;;;8.53;72.80;101281.91;5108153;28;20587;-81
2023/02/22 08:39:59;;;;;;;0.10;0.10;;;;;;;8.50;72.51;101264.31;5117002;28;20031;-82
2023/02/22 08:42:25;;;;;;;3.20;0.63;;;;;;;8.52;72.34;101280.16;5115512;28;20055;-82
2023/02/22 08:44:51;;;;;;;2.60;2.40;;;;;;;8.54;72.11;101275.75;5105118;28;20032;-82
2023/02/22 08:47:17;;;;;;;1.55;1.45;;;;;;;8.62;72.84;101263.38;5097633;28;20032;-85
2023/02/22 08:49:43;;;;;;;0.60;0.60;;;;;;;8.59;72.12;101271.31;5094366;28;20463;-84
2023/02/22 08:52:10;;;;;;;0.20;0.20;;;;;;;8.64;72.36;101272.19;5095858;28;20075;-83
2023/02/22 08:54:36;;;;;;;0.10;0.10;;;;;;;8.68;72.58;101273.91;5096225;28;20024;-83
2023/02/22 08:57:02;;;;;;;0.68;0.68;;;;;;;8.74;72.77;101273.88;5097885;28;20367;-84
2023/02/22 08:59:28;;;;;;;0.32;0.32;;;;;;;8.83;72.17;101266.78;5098192;28;20046;-83
2023/02/22 09:01:54;;;;;;;3.00;1.75;;;;;;;8.86;72.39;101267.66;5098033;28;20063;-83
2023/02/22 09:04:20;;;;;;;1.00;1.00;;;;;;;8.91;71.91;101270.28;5097475;28;20040;-83
2023/02/22 09:06:50;;;;;;;1.95;0.85;;;;;;;8.95;71.77;101265.81;5095871;28;20028;-83
2023/02/22 09:09:19;;;;;;;0.10;0.10;;;;;;;8.93;71.49;101263.19;5098204;28;20046;-85
2023/02/22 09:11:46;;;;;;;3.05;2.83;;;;;;;8.89;71.46;101254.41;5099113;28;20024;-86
2023/02/22 09:14:13;;;;;;;1.25;1.15;;;;;;;8.86;71.37;101245.63;5093428;28;20059;-83
2023/02/22 09:16:39;;;;;;;0.38;0.38;;;;;;;8.98;71.02;101239.38;5097269;28;20036;-83
2023/02/22 09:19:05;;;;;;;0.10;0.10;;;;;;;9.04;71.30;101242.00;5092480;28;20032;-83
2023/02/22 09:21:31;;;;;;;0.30;0.30;;;;;;;9.00;71.35;101238.50;5094062;28;20036;-83
2023/02/22 09:24:00;;;;;;;0.75;0.75;;;;;;;9.11;71.23;101242.81;5092974;28;20042;-85
2023/02/22 09:26:26;;;;;;;0.30;0.30;;;;;;;9.17;70.68;101238.38;5091516;28;20107;-85
2023/02/22 09:28:52;;;;;;;2.35;2.25;;;;;;;9.21;71.02;101241.88;5092010;28;20032;-84
2023/02/22 09:31:18;;;;;;;0.20;0.20;;;;;;;9.16;71.18;101244.53;5093008;28;20033;-79
2023/02/22 09:33:44;;;;;;;1.15;1.05;;;;;;;9.17;70.79;101241.03;5092745;28;20383;-81
2023/02/22 09:36:10;;;;;;;0.40;0.40;;;;;;;9.23;70.60;101240.06;5091931;28;20029;-82
2023/02/22 09:38:36;;;;;;;0.57;0.57;;;;;;;9.30;70.91;101241.78;5092474;28;20043;-82
2023/02/22 09:41:32;;;;;;;0.63;0.63;;;;;;;9.35;70.32;101237.31;5094217;28;20024;-83
2023/02/22 09:44:14;;;;;;;3.70;2.20;;;;;;;9.39;70.06;101243.47;5089941;28;20467;-85
2023/02/22 09:46:44;;;;;;;0.50;0.50;;;;;;;9.36;69.90;101247.03;5092540;28;20036;-84
2023/02/22 09:49:24;;;;;;;0.10;0.10;;;;;;;9.48;69.87;101258.38;5090167;28;20032;-85
2023/02/22 09:54:50;;;;;;;0.30;0.30;;;;;;;9.66;69.65;101257.34;5099408;27;1237559;-82
2023/02/22 09:57:30;;;;;;;0.45;0.45;;;;;;;9.68;69.57;101259.09;5118772;28;20377;-80
2023/02/22 10:00:13;;;;;;;0.45;0.45;;;;;;;9.74;69.17;101262.56;5125686;28;20027;-79
2023/02/22 10:02:58;;;;;;;2.53;2.33;;;;;;;9.78;68.53;101265.19;5109668;28;20043;-79
2023/02/22 10:05:32;;;;;;;1.55;0.70;;;;;;;9.87;68.92;101280.09;5108510;28;20039;-80
2023/02/22 10:08:08;;;;;;;3.15;1.60;;;;;;;9.95;68.19;101267.63;5108415;28;20103;-82
2023/02/22 10:10:38;;;;;;;0.30;0.30;;;;;;;9.98;68.67;101270.25;5109400;28;20028;-82
2023/02/22 10:19:13;;;;;;;0.75;0.75;;;;;;;10.17;67.26;101244.44;5073864;28;20878;-80
2023/02/22 10:21:59;;;;;;;6.55;0.95;;;;;;;10.21;67.60;101239.97;5042618;28;20037;-80
2023/02/22 10:24:38;;;;;;;0.93;0.93;;;;;;;10.26;68.02;101239.94;5042366;28;20041;-81
2023/02/22 10:27:08;;;;;;;0.30;0.30;;;;;;;10.32;67.83;101245.16;5039414;28;20135;-82
2023/02/22 10:29:47;;;;;;;0.10;0.10;;;;;;;10.50;67.97;101244.97;5032830;28;20032;-83
2023/02/22 10:32:20;;;;;;;2.25;1.90;;;;;;;10.55;67.36;101236.94;5040032;28;20026;-83
2023/02/22 10:34:50;;;;;;;1.45;0.50;;;;;;;10.66;66.49;101242.94;5034465;28;20041;-83
2023/02/22 10:37:27;;;;;;;0.40;0.40;;;;;;;10.85;66.17;101250.63;5042500;28;20025;-84
2023/02/22 10:40:04;;;;;;;0.35;0.35;;;;;;;10.89;64.96;101247.06;5045432;28;20027;-83
2023/02/22 10:42:31;;;;;;;1.23;1.20;;;;;;;10.89;64.52;101241.78;5045765;28;20640;-83
2023/02/22 10:44:57;;;;;;;0.20;0.20;;;;;;;10.94;64.63;101250.53;5043843;28;20494;-83
2023/02/22 10:47:24;;;;;;;0.80;0.80;;;;;;;10.98;64.99;101243.41;5047706;28;20099;-83
2023/02/22 10:49:55;;;;;;;0.85;0.82;;;;;;;11.04;64.74;101245.06;5041984;28;20085;-82
2023/02/22 10:54:59;;;;;;;0.80;0.77;;;;;;;11.17;65.53;101239.53;5128273;27;20397;-84
2023/02/22 10:57:30;;;;;;;0.30;0.30;;;;;;;11.20;64.63;101233.31;5124744;28;20027;-85
2023/02/22 10:59:57;;;;;;;1.40;1.40;;;;;;;11.27;64.09;101229.66;5131967;28;20051;-85
2023/02/22 11:02:33;;;;;;;0.10;0.10;;;;;;;11.37;64.17;101240.13;5120216;28;20012;-83
2023/02/22 11:05:03;;;;;;;2.40;2.22;;;;;;;11.41;63.05;101234.72;5097767;28;20028;-84
2023/02/22 11:07:31;;;;;;;1.42;0.43;;;;;;;11.45;63.47;101224.94;5092601;28;20031;-84
2023/02/22 11:10:00;;;;;;;0.82;0.82;;;;;;;11.52;62.45;101225.72;5093519;28;20024;-84
2023/02/22 11:17:56;;;;;;;2.20;1.52;;;;;;;11.58;62.49;101205.25;5030832;27;20408;-82
2023/02/22 11:20:25;;;;;;;1.05;1.05;;;;;;;11.57;62.02;101214.09;5028824;28;20046;-83
2023/02/22 11:22:56;;;;;;;5.28;0.80;;;;;;;11.66;62.32;101202.44;5022638;28;20042;-83
2023/02/22 11:25:29;;;;;;;1.00;1.00;;;;;;;11.69;61.62;101209.47;5024927;28;20030;-85
2023/02/22 11:28:05;;;;;;;;;;;;;;;11.83;61.32;101196.81;5019167;28;20102;-83
2023/02/22 11:30:34;;;;;;;0.20;0.20;;;;;;;11.74;61.50;101196.97;5013226;28;20128;-83
2023/02/22 11:33:22;;;;;;;0.60;0.60;;;;;;;11.83;61.15;101194.16;5023606;28;20029;-81
2023/02/22 11:38:28;;;;;;;0.20;0.20;;;;;;;11.81;61.48;101196.84;5090243;27;1893799;-80
2023/02/22 11:41:17;;;;;;;0.45;0.45;;;;;;;11.91;60.91;101186.94;5142476;27;20118;-82
2023/02/22 11:43:46;;;;;;;1.48;1.40;;;;;;;11.93;62.14;101185.09;5115045;27;20051;-83
2023/02/22 11:46:19;;;;;;;0.30;0.30;;;;;;;12.00;62.10;101187.66;5105821;28;20035;-82
2023/02/22 11:48:57;;;;;;;0.95;0.95;;;;;;;12.04;60.55;101171.66;5097361;28;20605;-81
2023/02/22 11:51:36;;;;;;;13.05;2.65;;;;;;;12.08;60.93;101175.97;5101981;28;20465;-81
2023/02/22 11:54:38;;;;;;;0.10;0.10;;;;;;;12.11;60.79;101172.38;5098958;28;20096;-83
2023/02/22 11:57:31;;;;;;;1.23;1.15;;;;;;;12.07;60.27;101174.22;5107382;28;20032;-80
2023/02/22 12:05:58;;;;;;;0.73;0.73;;;;;;;11.97;60.42;101162.94;5081792;27;20420;-84
2023/02/22 12:19:45;;;;;;;0.10;0.10;;;;;;;12.05;61.19;101145.94;5101268;27;2156586;-82
2023/02/22 12:22:20;;;;;;;0.10;0.10;;;;;;;12.13;61.41;101149.31;5151144;27;20319;-80
2023/02/22 12:27:37;;;;;;;0.47;0.47;;;;;;;12.23;60.57;101148.22;5094866;27;1185636;-80
2023/02/22 12:35:33;;;;;;;0.20;0.20;;;;;;;12.35;60.08;101148.84;5083306;27;20878;-82
2023/02/22 12:38:29;;;;;;;0.10;0.10;;;;;;;12.47;59.91;101137.94;5079997;28;20038;-81
2023/02/22 12:43:52;;;;;;;0.35;0.35;;;;;;;12.54;59.94;101134.22;5092308;27;20872;-79
2023/02/22 12:46:39;;;;;;;1.00;1.00;;;;;;;12.58;59.58;101137.69;5099698;28;20111;-81
2023/02/22 12:52:08;;;;;;;2.50;2.30;;;;;;;12.67;59.81;101145.44;5050757;28;20483;-83